sensor_id;sensor_type;location;lat;lon;timestamp;pressure;altitude;pressure_sealevel;temperature;humidity
15678;BME280;7939;50.814;6.368;2023-11-21T00:01:10;99355.66;;;14.01;67.99
15678;BME280;7939;50.814;6.368;2023-11-21T00:03:38;99352.22;;;14.00;68.10
15678;BME280;7939;50.814;6.368;2023-11-21T00:06:06;99353.94;;;14.01;67.60
15678;BME280;7939;50.814;6.368;2023-11-21T00:08:34;99353.94;;;14.01;67.82
15678;BME280;7939;50.814;6.368;2023-11-21T00:11:01;99350.50;;;14.01;67.69
15678;BME280;7939;50.814;6.368;2023-11-21T00:13:30;99346.22;;;14.03;67.92
15678;BME280;7939;50.814;6.368;2023-11-21T00:15:57;99352.22;;;14.02;68.07
15678;BME280;7939;50.814;6.368;2023-11-21T00:18:24;99361.63;;;14.01;67.72
15678;BME280;7939;50.814;6.368;2023-11-21T00:20:52;99359.94;;;14.00;67.74
15678;BME280;7939;50.814;6.368;2023-11-21T00:23:18;99359.91;;;14.03;67.82
15678;BME280;7939;50.814;6.368;2023-11-21T00:25:45;99362.47;;;14.03;67.61
15678;BME280;7939;50.814;6.368;2023-11-21T00:28:11;99362.50;;;14.00;67.57
15678;BME280;7939;50.814;6.368;2023-11-21T00:30:38;99365.09;;;14.00;67.21
15678;BME280;7939;50.814;6.368;2023-11-21T00:33:05;99362.50;;;14.02;67.82
15678;BME280;7939;50.814;6.368;2023-11-21T00:35:31;99361.63;;;14.01;67.59
15678;BME280;7939;50.814;6.368;2023-11-21T00:37:59;99368.53;;;13.99;67.36
15678;BME280;7939;50.814;6.368;2023-11-21T00:40:26;99377.97;;;13.99;67.86
15678;BME280;7939;50.814;6.368;2023-11-21T00:42:52;99371.06;;;14.01;67.50
15678;BME280;7939;50.814;6.368;2023-11-21T00:45:19;99378.81;;;13.99;67.56
15678;BME280;7939;50.814;6.368;2023-11-21T00:47:45;99382.25;;;13.98;67.37
15678;BME280;7939;50.814;6.368;2023-11-21T00:50:12;99385.72;;;13.97;68.01
15678;BME280;7939;50.814;6.368;2023-11-21T00:52:39;99392.56;;;13.97;67.72
15678;BME280;7939;50.814;6.368;2023-11-21T00:55:08;99387.44;;;13.97;68.23
15678;BME280;7939;50.814;6.368;2023-11-21T00:57:35;99388.28;;;13.97;67.25
15678;BME280;7939;50.814;6.368;2023-11-21T01:00:03;99387.44;;;13.97;67.26
15678;BME280;7939;50.814;6.368;2023-11-21T01:02:38;99400.28;;;13.97;67.53
15678;BME280;7939;50.814;6.368;2023-11-21T01:05:05;99393.47;;;13.96;67.85
15678;BME280;7939;50.814;6.368;2023-11-21T01:07:33;99410.53;;;13.98;67.63
15678;BME280;7939;50.814;6.368;2023-11-21T01:10:02;99411.41;;;13.97;67.93
15678;BME280;7939;50.814;6.368;2023-11-21T01:12:32;99403.72;;;13.96;67.74
15678;BME280;7939;50.814;6.368;2023-11-21T01:14:59;99402.00;;;13.95;67.61
15678;BME280;7939;50.814;6.368;2023-11-21T01:17:26;99403.75;;;13.94;67.69
15678;BME280;7939;50.814;6.368;2023-11-21T01:19:53;99413.16;;;13.95;67.93
15678;BME280;7939;50.814;6.368;2023-11-21T01:22:19;99406.31;;;13.94;67.37
15678;BME280;7939;50.814;6.368;2023-11-21T01:24:51;99412.28;;;13.95;67.32
15678;BME280;7939;50.814;6.368;2023-11-21T01:27:17;99412.28;;;13.95;68.20
15678;BME280;7939;50.814;6.368;2023-11-21T01:29:45;99411.44;;;13.94;67.62
15678;BME280;7939;50.814;6.368;2023-11-21T01:32:12;99418.31;;;13.94;67.60
15678;BME280;7939;50.814;6.368;2023-11-21T01:34:38;99417.44;;;13.95;67.35
15678;BME280;7939;50.814;6.368;2023-11-21T01:37:05;99417.50;;;13.92;67.83
15678;BME280;7939;50.814;6.368;2023-11-21T01:39:32;99419.22;;;13.91;67.45
15678;BME280;7939;50.814;6.368;2023-11-21T01:41:58;99415.78;;;13.92;67.64
15678;BME280;7939;50.814;6.368;2023-11-21T01:44:25;99418.38;;;13.91;67.29
15678;BME280;7939;50.814;6.368;2023-11-21T01:46:53;99420.94;;;13.91;67.79
15678;BME280;7939;50.814;6.368;2023-11-21T01:49:20;99424.38;;;13.91;67.45
15678;BME280;7939;50.814;6.368;2023-11-21T01:51:48;99424.31;;;13.93;67.54
15678;BME280;7939;50.814;6.368;2023-11-21T01:54:16;99426.97;;;13.90;67.47
15678;BME280;7939;50.814;6.368;2023-11-21T01:56:44;99419.28;;;13.88;67.89
15678;BME280;7939;50.814;6.368;2023-11-21T01:59:13;99427.81;;;13.90;67.84
15678;BME280;7939;50.814;6.368;2023-11-21T02:01:41;99422.69;;;13.89;67.25
15678;BME280;7939;50.814;6.368;2023-11-21T02:04:09;99421.00;;;13.88;68.08
15678;BME280;7939;50.814;6.368;2023-11-21T02:06:36;99423.56;;;13.88;67.22
15678;BME280;7939;50.814;6.368;2023-11-21T02:09:03;99427.81;;;13.89;67.24
15678;BME280;7939;50.814;6.368;2023-11-21T02:11:30;99433.84;;;13.88;67.14
15678;BME280;7939;50.814;6.368;2023-11-21T02:13:59;99432.16;;;13.87;67.37
15678;BME280;7939;50.814;6.368;2023-11-21T02:16:26;99435.59;;;13.86;67.88
15678;BME280;7939;50.814;6.368;2023-11-21T02:18:56;99439.03;;;13.85;67.45
15678;BME280;7939;50.814;6.368;2023-11-21T02:21:26;99437.31;;;13.85;67.37
15678;BME280;7939;50.814;6.368;2023-11-21T02:23:55;99438.22;;;13.84;67.73
15678;BME280;7939;50.814;6.368;2023-11-21T02:26:22;99450.16;;;13.85;67.00
15678;BME280;7939;50.814;6.368;2023-11-21T02:28:49;99448.47;;;13.84;66.96
15678;BME280;7939;50.814;6.368;2023-11-21T02:31:18;99458.75;;;13.83;67.78
15678;BME280;7939;50.814;6.368;2023-11-21T02:33:45;99453.63;;;13.84;67.10
15678;BME280;7939;50.814;6.368;2023-11-21T02:36:11;99447.63;;;13.84;67.38
15678;BME280;7939;50.814;6.368;2023-11-21T02:38:38;99463.03;;;13.84;67.80
15678;BME280;7939;50.814;6.368;2023-11-21T02:41:06;99455.34;;;13.84;67.86
15678;BME280;7939;50.814;6.368;2023-11-21T02:43:33;99457.06;;;13.83;67.67
15678;BME280;7939;50.814;6.368;2023-11-21T02:45:59;99453.66;;;13.81;67.70
15678;BME280;7939;50.814;6.368;2023-11-21T02:48:26;99453.66;;;13.81;67.34
15678;BME280;7939;50.814;6.368;2023-11-21T02:50:52;99458.78;;;13.81;67.03
15678;BME280;7939;50.814;6.368;2023-11-21T02:53:19;99454.50;;;13.82;67.23
15678;BME280;7939;50.814;6.368;2023-11-21T02:55:45;99462.22;;;13.82;67.60
15678;BME280;7939;50.814;6.368;2023-11-21T02:58:13;99459.66;;;13.80;67.67
15678;BME280;7939;50.814;6.368;2023-11-21T03:00:40;99463.09;;;13.81;66.87
15678;BME280;7939;50.814;6.368;2023-11-21T03:03:07;99464.84;;;13.79;67.65
15678;BME280;7939;50.814;6.368;2023-11-21T03:05:33;99468.22;;;13.81;67.75
15678;BME280;7939;50.814;6.368;2023-11-21T03:08:00;99464.00;;;13.78;67.09
15678;BME280;7939;50.814;6.368;2023-11-21T03:10:27;99475.13;;;13.79;67.05
15678;BME280;7939;50.814;6.368;2023-11-21T03:12:54;99464.84;;;13.79;67.96
15678;BME280;7939;50.814;6.368;2023-11-21T03:15:22;99469.13;;;13.78;67.49
15678;BME280;7939;50.814;6.368;2023-11-21T03:17:48;99475.16;;;13.77;67.32
15678;BME280;7939;50.814;6.368;2023-11-21T03:20:15;99470.84;;;13.77;67.35
15678;BME280;7939;50.814;6.368;2023-11-21T03:22:42;99476.84;;;13.78;67.23
15678;BME280;7939;50.814;6.368;2023-11-21T03:25:09;99478.56;;;13.76;67.76
15678;BME280;7939;50.814;6.368;2023-11-21T03:27:36;99478.63;;;13.73;66.91
15678;BME280;7939;50.814;6.368;2023-11-21T03:30:05;99482.84;;;13.75;67.79
15678;BME280;7939;50.814;6.368;2023-11-21T03:32:34;99485.44;;;13.75;67.87
15678;BME280;7939;50.814;6.368;2023-11-21T03:35:01;99492.28;;;13.75;67.20
15678;BME280;7939;50.814;6.368;2023-11-21T03:37:28;99494.84;;;13.76;67.53
15678;BME280;7939;50.814;6.368;2023-11-21T03:39:56;99494.00;;;13.74;67.02
15678;BME280;7939;50.814;6.368;2023-11-21T03:42:22;99500.00;;;13.75;67.20
15678;BME280;7939;50.814;6.368;2023-11-21T03:44:50;99505.13;;;13.75;66.96
15678;BME280;7939;50.814;6.368;2023-11-21T03:47:17;99508.59;;;13.72;67.18
15678;BME280;7939;50.814;6.368;2023-11-21T03:49:45;99506.91;;;13.71;67.96
15678;BME280;7939;50.814;6.368;2023-11-21T03:52:12;99508.66;;;13.71;67.44
15678;BME280;7939;50.814;6.368;2023-11-21T03:54:39;99509.50;;;13.71;67.56
15678;BME280;7939;50.814;6.368;2023-11-21T03:57:05;99510.38;;;13.70;67.22
15678;BME280;7939;50.814;6.368;2023-11-21T03:59:32;99513.78;;;13.71;67.29
15678;BME280;7939;50.814;6.368;2023-11-21T04:01:58;99524.06;;;13.71;67.51
15678;BME280;7939;50.814;6.368;2023-11-21T04:04:25;99527.44;;;13.73;67.12
15678;BME280;7939;50.814;6.368;2023-11-21T04:06:53;99519.75;;;13.70;67.16
15678;BME280;7939;50.814;6.368;2023-11-21T04:09:19;99529.19;;;13.71;67.28
15678;BME280;7939;50.814;6.368;2023-11-21T04:11:49;99531.75;;;13.69;67.10
15678;BME280;7939;50.814;6.368;2023-11-21T04:14:15;99528.34;;;13.69;67.32
15678;BME280;7939;50.814;6.368;2023-11-21T04:16:42;99525.78;;;13.70;67.05
15678;BME280;7939;50.814;6.368;2023-11-21T04:19:09;99532.63;;;13.68;67.11
15678;BME280;7939;50.814;6.368;2023-11-21T04:21:35;99524.06;;;13.69;67.25
15678;BME280;7939;50.814;6.368;2023-11-21T04:24:04;99527.50;;;13.68;67.43
15678;BME280;7939;50.814;6.368;2023-11-21T04:26:31;99536.06;;;13.67;67.69
15678;BME280;7939;50.814;6.368;2023-11-21T04:28:58;99541.19;;;13.69;67.88
15678;BME280;7939;50.814;6.368;2023-11-21T04:31:25;99541.22;;;13.67;66.81
15678;BME280;7939;50.814;6.368;2023-11-21T04:33:51;99535.19;;;13.68;67.56
15678;BME280;7939;50.814;6.368;2023-11-21T04:36:18;99530.94;;;13.67;67.63
15678;BME280;7939;50.814;6.368;2023-11-21T04:38:46;99536.06;;;13.67;67.61
15678;BME280;7939;50.814;6.368;2023-11-21T04:41:14;99536.94;;;13.68;67.27
15678;BME280;7939;50.814;6.368;2023-11-21T04:43:40;99536.06;;;13.67;67.28
15678;BME280;7939;50.814;6.368;2023-11-21T04:46:07;99533.50;;;13.67;66.82
15678;BME280;7939;50.814;6.368;2023-11-21T04:48:34;99542.13;;;13.65;67.83
15678;BME280;7939;50.814;6.368;2023-11-21T04:51:00;99541.28;;;13.64;67.76
15678;BME280;7939;50.814;6.368;2023-11-21T04:53:29;99541.28;;;13.64;67.46
15678;BME280;7939;50.814;6.368;2023-11-21T04:55:56;99531.84;;;13.65;67.62
15678;BME280;7939;50.814;6.368;2023-11-21T04:58:26;99541.28;;;13.63;66.97
15678;BME280;7939;50.814;6.368;2023-11-21T05:00:53;99542.97;;;13.64;67.46
15678;BME280;7939;50.814;6.368;2023-11-21T05:03:20;99543.00;;;13.62;67.62
15678;BME280;7939;50.814;6.368;2023-11-21T05:05:49;99543.06;;;13.59;66.99
15678;BME280;7939;50.814;6.368;2023-11-21T05:08:15;99538.84;;;13.55;67.56
15678;BME280;7939;50.814;6.368;2023-11-21T05:10:42;99547.38;;;13.56;67.66
15678;BME280;7939;50.814;6.368;2023-11-21T05:13:08;99551.66;;;13.58;66.92
15678;BME280;7939;50.814;6.368;2023-11-21T05:15:37;99555.06;;;13.59;67.50
15678;BME280;7939;50.814;6.368;2023-11-21T05:18:04;99565.31;;;13.60;67.13
15678;BME280;7939;50.814;6.368;2023-11-21T05:20:31;99561.91;;;13.58;67.04
15678;BME280;7939;50.814;6.368;2023-11-21T05:22:58;99565.34;;;13.57;67.05
15678;BME280;7939;50.814;6.368;2023-11-21T05:25:25;99565.38;;;13.56;67.75
15678;BME280;7939;50.814;6.368;2023-11-21T05:27:51;99566.22;;;13.58;67.70
15678;BME280;7939;50.814;6.368;2023-11-21T05:30:20;99569.72;;;13.52;67.74
15678;BME280;7939;50.814;6.368;2023-11-21T05:32:48;99573.91;;;13.56;67.81
15678;BME280;7939;50.814;6.368;2023-11-21T05:35:16;99576.44;;;13.59;67.42
15678;BME280;7939;50.814;6.368;2023-11-21T05:37:43;99574.75;;;13.58;66.97
15678;BME280;7939;50.814;6.368;2023-11-21T05:40:11;99583.31;;;13.59;67.21
15678;BME280;7939;50.814;6.368;2023-11-21T05:42:39;99588.44;;;13.57;67.20
15678;BME280;7939;50.814;6.368;2023-11-21T05:45:06;99595.28;;;13.57;67.42
15678;BME280;7939;50.814;6.368;2023-11-21T05:47:36;99600.44;;;13.57;67.73
15678;BME280;7939;50.814;6.368;2023-11-21T05:50:06;99597.94;;;13.54;67.69
15678;BME280;7939;50.814;6.368;2023-11-21T05:52:36;99597.88;;;13.57;67.45
15678;BME280;7939;50.814;6.368;2023-11-21T05:55:02;99598.75;;;13.56;67.02
15678;BME280;7939;50.814;6.368;2023-11-21T05:57:31;99614.19;;;13.54;67.37
15678;BME280;7939;50.814;6.368;2023-11-21T05:59:57;99612.44;;;13.55;67.22
15678;BME280;7939;50.814;6.368;2023-11-21T06:02:24;99621.88;;;13.54;67.27
15678;BME280;7939;50.814;6.368;2023-11-21T06:04:51;99620.19;;;13.53;67.26
15678;BME280;7939;50.814;6.368;2023-11-21T06:07:19;99626.97;;;13.56;67.32
15678;BME280;7939;50.814;6.368;2023-11-21T06:09:45;99626.13;;;13.55;67.21
15678;BME280;7939;50.814;6.368;2023-11-21T06:12:14;99630.44;;;13.55;67.82
15678;BME280;7939;50.814;6.368;2023-11-21T06:14:41;99632.13;;;13.56;66.85
15678;BME280;7939;50.814;6.368;2023-11-21T06:17:07;99645.88;;;13.52;67.07
15678;BME280;7939;50.814;6.368;2023-11-21T06:19:35;99655.31;;;13.49;67.28
15678;BME280;7939;50.814;6.368;2023-11-21T06:22:01;99655.31;;;13.49;67.50
15678;BME280;7939;50.814;6.368;2023-11-21T06:24:29;99654.44;;;13.50;67.02
15678;BME280;7939;50.814;6.368;2023-11-21T06:26:56;99665.56;;;13.53;67.24
15678;BME280;7939;50.814;6.368;2023-11-21T06:29:22;99661.25;;;13.53;67.33
15678;BME280;7939;50.814;6.368;2023-11-21T06:31:49;99666.44;;;13.52;67.67
15678;BME280;7939;50.814;6.368;2023-11-21T06:34:15;99662.09;;;13.54;67.05
15678;BME280;7939;50.814;6.368;2023-11-21T06:36:42;99668.09;;;13.54;67.13
15678;BME280;7939;50.814;6.368;2023-11-21T06:39:09;99664.69;;;13.54;67.57
15678;BME280;7939;50.814;6.368;2023-11-21T06:41:37;99663.00;;;13.49;67.32
15678;BME280;7939;50.814;6.368;2023-11-21T06:44:04;99669.00;;;13.50;67.67
15678;BME280;7939;50.814;6.368;2023-11-21T06:46:30;99672.38;;;13.54;67.89
15678;BME280;7939;50.814;6.368;2023-11-21T06:48:57;99676.72;;;13.48;67.18
15678;BME280;7939;50.814;6.368;2023-11-21T06:51:24;99680.97;;;13.49;67.77
15678;BME280;7939;50.814;6.368;2023-11-21T06:53:50;99678.38;;;13.51;67.63
15678;BME280;7939;50.814;6.368;2023-11-21T06:56:17;99684.47;;;13.44;67.79
15678;BME280;7939;50.814;6.368;2023-11-21T06:58:46;99684.50;;;13.42;67.50
15678;BME280;7939;50.814;6.368;2023-11-21T07:01:13;99691.38;;;13.40;66.80
15678;BME280;7939;50.814;6.368;2023-11-21T07:03:40;99689.56;;;13.48;67.23
15678;BME280;7939;50.814;6.368;2023-11-21T07:06:08;99697.31;;;13.44;67.47
15678;BME280;7939;50.814;6.368;2023-11-21T07:08:34;99696.47;;;13.43;66.91
15678;BME280;7939;50.814;6.368;2023-11-21T07:11:01;99700.81;;;13.37;67.82
15678;BME280;7939;50.814;6.368;2023-11-21T07:13:28;99703.50;;;13.29;67.18
15678;BME280;7939;50.814;6.368;2023-11-21T07:15:58;99712.03;;;13.33;66.98
15678;BME280;7939;50.814;6.368;2023-11-21T07:18:25;99716.19;;;13.38;67.40
15678;BME280;7939;50.814;6.368;2023-11-21T07:20:52;99719.63;;;13.37;67.58
15678;BME280;7939;50.814;6.368;2023-11-21T07:23:19;99724.81;;;13.36;67.49
15678;BME280;7939;50.814;6.368;2023-11-21T07:25:48;99728.25;;;13.33;67.92
15678;BME280;7939;50.814;6.368;2023-11-21T07:28:14;99735.09;;;13.34;66.95
15678;BME280;7939;50.814;6.368;2023-11-21T07:30:41;99735.09;;;13.34;66.99
15678;BME280;7939;50.814;6.368;2023-11-21T07:33:09;99736.72;;;13.38;67.70
15678;BME280;7939;50.814;6.368;2023-11-21T07:35:36;99745.31;;;13.39;67.77
15678;BME280;7939;50.814;6.368;2023-11-21T07:38:03;99734.97;;;13.43;67.54
15678;BME280;7939;50.814;6.368;2023-11-21T07:40:30;99734.94;;;13.45;67.65
15678;BME280;7939;50.814;6.368;2023-11-21T07:42:57;99737.50;;;13.45;67.17
15678;BME280;7939;50.814;6.368;2023-11-21T07:45:23;99746.94;;;13.46;66.87
15678;BME280;7939;50.814;6.368;2023-11-21T07:47:52;99744.38;;;13.46;67.02
15678;BME280;7939;50.814;6.368;2023-11-21T07:50:21;99746.03;;;13.48;67.07
15678;BME280;7939;50.814;6.368;2023-11-21T07:52:48;99755.53;;;13.42;67.81
15678;BME280;7939;50.814;6.368;2023-11-21T07:55:15;99761.50;;;13.45;66.89
15678;BME280;7939;50.814;6.368;2023-11-21T07:57:41;99762.34;;;13.46;67.37
15678;BME280;7939;50.814;6.368;2023-11-21T08:00:09;99771.69;;;13.48;66.92
15678;BME280;7939;50.814;6.368;2023-11-21T08:02:37;99776.03;;;13.46;67.61
15678;BME280;7939;50.814;6.368;2023-11-21T08:05:04;99776.03;;;13.46;67.37
15678;BME280;7939;50.814;6.368;2023-11-21T08:07:33;99779.41;;;13.48;67.01
15678;BME280;7939;50.814;6.368;2023-11-21T08:10:00;99786.25;;;13.48;67.05
15678;BME280;7939;50.814;6.368;2023-11-21T08:12:26;99786.25;;;13.48;68.02
15678;BME280;7939;50.814;6.368;2023-11-21T08:14:53;99793.13;;;13.46;68.00
15678;BME280;7939;50.814;6.368;2023-11-21T08:17:20;99799.19;;;13.40;67.49
15678;BME280;7939;50.814;6.368;2023-11-21T08:19:46;99802.56;;;13.44;67.40
15678;BME280;7939;50.814;6.368;2023-11-21T08:22:14;99800.78;;;13.49;68.04
15678;BME280;7939;50.814;6.368;2023-11-21T08:24:43;99801.63;;;13.49;67.44
15678;BME280;7939;50.814;6.368;2023-11-21T08:27:09;99799.13;;;13.45;67.97
15678;BME280;7939;50.814;6.368;2023-11-21T08:29:36;99808.59;;;13.40;67.57
15678;BME280;7939;50.814;6.368;2023-11-21T08:32:03;99814.56;;;13.42;67.89
15678;BME280;7939;50.814;6.368;2023-11-21T08:34:30;99819.72;;;13.40;67.41
15678;BME280;7939;50.814;6.368;2023-11-21T08:36:57;99816.25;;;13.46;68.19
15678;BME280;7939;50.814;6.368;2023-11-21T08:39:24;99818.81;;;13.44;67.55
15678;BME280;7939;50.814;6.368;2023-11-21T08:41:53;99822.19;;;13.49;67.74
15678;BME280;7939;50.814;6.368;2023-11-21T08:44:20;99823.91;;;13.47;68.08
15678;BME280;7939;50.814;6.368;2023-11-21T08:46:46;99830.78;;;13.44;68.05
15678;BME280;7939;50.814;6.368;2023-11-21T08:49:13;99821.31;;;13.49;68.12
15678;BME280;7939;50.814;6.368;2023-11-21T08:51:40;99828.22;;;13.45;67.98
15678;BME280;7939;50.814;6.368;2023-11-21T08:54:07;99835.03;;;13.48;67.61
15678;BME280;7939;50.814;6.368;2023-11-21T08:56:34;99841.84;;;13.52;68.16
15678;BME280;7939;50.814;6.368;2023-11-21T08:59:02;99847.88;;;13.48;68.10
15678;BME280;7939;50.814;6.368;2023-11-21T09:01:30;99841.00;;;13.52;67.93
15678;BME280;7939;50.814;6.368;2023-11-21T09:03:58;99844.41;;;13.52;68.16
15678;BME280;7939;50.814;6.368;2023-11-21T09:06:24;99846.97;;;13.54;67.77
15678;BME280;7939;50.814;6.368;2023-11-21T09:08:51;99843.53;;;13.55;68.02
15678;BME280;7939;50.814;6.368;2023-11-21T09:11:18;99850.34;;;13.56;68.62
15678;BME280;7939;50.814;6.368;2023-11-21T09:13:44;99853.78;;;13.55;68.29
15678;BME280;7939;50.814;6.368;2023-11-21T09:16:14;99858.03;;;13.57;68.45
15678;BME280;7939;50.814;6.368;2023-11-21T09:18:40;99868.31;;;13.59;67.55
15678;BME280;7939;50.814;6.368;2023-11-21T09:21:07;99870.84;;;13.60;67.48
15678;BME280;7939;50.814;6.368;2023-11-21T09:23:34;99871.72;;;13.59;68.12
15678;BME280;7939;50.814;6.368;2023-11-21T09:26:00;99877.72;;;13.60;68.17
15678;BME280;7939;50.814;6.368;2023-11-21T09:28:27;99874.28;;;13.59;67.57
15678;BME280;7939;50.814;6.368;2023-11-21T09:30:54;99873.41;;;13.60;68.06
15678;BME280;7939;50.814;6.368;2023-11-21T09:33:21;99881.13;;;13.60;67.82
15678;BME280;7939;50.814;6.368;2023-11-21T09:35:50;99884.56;;;13.59;68.07
15678;BME280;7939;50.814;6.368;2023-11-21T09:38:17;99890.56;;;13.58;67.88
15678;BME280;7939;50.814;6.368;2023-11-21T09:40:44;99893.94;;;13.62;67.79
15678;BME280;7939;50.814;6.368;2023-11-21T09:43:16;99899.97;;;13.56;67.97
15678;BME280;7939;50.814;6.368;2023-11-21T09:45:45;99892.28;;;13.58;67.51
15678;BME280;7939;50.814;6.368;2023-11-21T09:48:12;99900.84;;;13.58;67.63
15678;BME280;7939;50.814;6.368;2023-11-21T09:50:41;99889.69;;;13.59;68.53
15678;BME280;7939;50.814;6.368;2023-11-21T09:53:13;99897.41;;;13.59;68.35
15678;BME280;7939;50.814;6.368;2023-11-21T09:55:42;99894.81;;;13.61;68.09
15678;BME280;7939;50.814;6.368;2023-11-21T09:58:10;99901.63;;;13.62;67.71
15678;BME280;7939;50.814;6.368;2023-11-21T10:00:40;99907.66;;;13.61;68.09
15678;BME280;7939;50.814;6.368;2023-11-21T10:03:07;99896.50;;;13.62;67.96
15678;BME280;7939;50.814;6.368;2023-11-21T10:05:34;99899.06;;;13.62;67.67
15678;BME280;7939;50.814;6.368;2023-11-21T10:08:04;99899.91;;;13.64;67.88
15678;BME280;7939;50.814;6.368;2023-11-21T10:10:33;99910.16;;;13.64;68.09
15678;BME280;7939;50.814;6.368;2023-11-21T10:13:02;99905.91;;;13.64;67.86
15678;BME280;7939;50.814;6.368;2023-11-21T10:15:33;99907.59;;;13.65;68.07
15678;BME280;7939;50.814;6.368;2023-11-21T10:18:02;99910.16;;;13.67;68.19
15678;BME280;7939;50.814;6.368;2023-11-21T10:20:29;99910.19;;;13.65;68.53
15678;BME280;7939;50.814;6.368;2023-11-21T10:22:56;99908.44;;;13.66;67.85
15678;BME280;7939;50.814;6.368;2023-11-21T10:25:24;99913.56;;;13.67;68.04
15678;BME280;7939;50.814;6.368;2023-11-21T10:27:57;99918.72;;;13.66;67.84
15678;BME280;7939;50.814;6.368;2023-11-21T10:30:29;99923.00;;;13.65;67.43
15678;BME280;7939;50.814;6.368;2023-11-21T10:32:59;99917.94;;;13.56;67.91
15678;BME280;7939;50.814;6.368;2023-11-21T10:35:38;99911.94;;;13.60;67.84
15678;BME280;7939;50.814;6.368;2023-11-21T10:38:08;99915.31;;;13.62;68.10
15678;BME280;7939;50.814;6.368;2023-11-21T10:40:39;99922.16;;;13.65;67.37
15678;BME280;7939;50.814;6.368;2023-11-21T10:43:07;99914.44;;;13.66;67.97
15678;BME280;7939;50.814;6.368;2023-11-21T10:45:35;99923.00;;;13.67;67.83
15678;BME280;7939;50.814;6.368;2023-11-21T10:48:05;99920.59;;;13.48;67.86
15678;BME280;7939;50.814;6.368;2023-11-21T10:50:32;99911.88;;;13.63;68.34
15678;BME280;7939;50.814;6.368;2023-11-21T10:53:01;99921.31;;;13.63;67.70
15678;BME280;7939;50.814;6.368;2023-11-21T10:55:28;99917.09;;;13.59;68.35
15678;BME280;7939;50.814;6.368;2023-11-21T10:57:58;99915.28;;;13.67;67.91
15678;BME280;7939;50.814;6.368;2023-11-21T11:00:26;99910.16;;;13.67;67.61
15678;BME280;7939;50.814;6.368;2023-11-21T11:02:53;99912.75;;;13.65;68.31
15678;BME280;7939;50.814;6.368;2023-11-21T11:05:21;99912.66;;;13.70;67.55
15678;BME280;7939;50.814;6.368;2023-11-21T11:07:50;99911.06;;;13.61;67.89
15678;BME280;7939;50.814;6.368;2023-11-21T11:10:20;99920.38;;;13.70;67.73
15678;BME280;7939;50.814;6.368;2023-11-21T11:12:48;99928.91;;;13.73;68.19
15678;BME280;7939;50.814;6.368;2023-11-21T11:15:16;99930.66;;;13.71;68.12
15678;BME280;7939;50.814;6.368;2023-11-21T11:17:43;99927.25;;;13.71;67.80
15678;BME280;7939;50.814;6.368;2023-11-21T11:20:13;99941.88;;;13.64;67.59
15678;BME280;7939;50.814;6.368;2023-11-21T11:22:44;99932.41;;;13.66;67.73
15678;BME280;7939;50.814;6.368;2023-11-21T11:25:30;99928.97;;;13.70;67.29
15678;BME280;7939;50.814;6.368;2023-11-21T11:28:04;99932.31;;;13.74;68.15
15678;BME280;7939;50.814;6.368;2023-11-21T11:30:42;99931.47;;;13.76;67.57
15678;BME280;7939;50.814;6.368;2023-11-21T11:33:21;99941.75;;;13.76;67.96
15678;BME280;7939;50.814;6.368;2023-11-21T11:35:56;99943.44;;;13.77;67.04
15678;BME280;7939;50.814;6.368;2023-11-21T11:38:23;99947.72;;;13.77;67.55
15678;BME280;7939;50.814;6.368;2023-11-21T11:40:53;99946.94;;;13.70;67.36
15678;BME280;7939;50.814;6.368;2023-11-21T11:43:25;99938.34;;;13.73;67.81
15678;BME280;7939;50.814;6.368;2023-11-21T11:45:55;99952.13;;;13.66;67.39
15678;BME280;7939;50.814;6.368;2023-11-21T11:48:22;99958.03;;;13.72;67.46
15678;BME280;7939;50.814;6.368;2023-11-21T11:51:05;99952.97;;;13.66;68.18
15678;BME280;7939;50.814;6.368;2023-11-21T11:53:41;99955.50;;;13.68;68.30
15678;BME280;7939;50.814;6.368;2023-11-21T11:56:25;99953.66;;;13.84;67.71
15678;BME280;7939;50.814;6.368;2023-11-21T11:58:54;99948.66;;;13.68;67.96
15678;BME280;7939;50.814;6.368;2023-11-21T12:01:24;99945.88;;;13.90;67.71
15678;BME280;7939;50.814;6.368;2023-11-21T12:04:25;99946.63;;;13.98;67.89
15678;BME280;7939;50.814;6.368;2023-11-21T12:07:02;99955.78;;;14.22;67.94
15678;BME280;7939;50.814;6.368;2023-11-21T12:09:31;99961.66;;;14.33;67.69
15678;BME280;7939;50.814;6.368;2023-11-21T12:11:59;99961.56;;;14.38;67.17
15678;BME280;7939;50.814;6.368;2023-11-21T12:14:26;99958.06;;;14.43;67.33
15678;BME280;7939;50.814;6.368;2023-11-21T12:16:55;99963.94;;;14.56;67.11
15678;BME280;7939;50.814;6.368;2023-11-21T12:19:22;99956.34;;;14.48;67.30
15678;BME280;7939;50.814;6.368;2023-11-21T12:21:49;99962.25;;;14.55;67.34
15678;BME280;7939;50.814;6.368;2023-11-21T12:24:16;99959.63;;;14.60;67.33
15678;BME280;7939;50.814;6.368;2023-11-21T12:26:43;99958.88;;;14.50;65.90
15678;BME280;7939;50.814;6.368;2023-11-21T12:29:10;99961.41;;;14.54;66.61
15678;BME280;7939;50.814;6.368;2023-11-21T12:31:37;99956.09;;;14.67;66.69
15678;BME280;7939;50.814;6.368;2023-11-21T12:34:05;99953.47;;;14.71;66.12
15678;BME280;7939;50.814;6.368;2023-11-21T12:36:32;99957.69;;;14.74;65.87
15678;BME280;7939;50.814;6.368;2023-11-21T12:39:00;99962.78;;;14.78;66.30
15678;BME280;7939;50.814;6.368;2023-11-21T12:41:27;99977.34;;;14.79;65.98
15678;BME280;7939;50.814;6.368;2023-11-21T12:43:55;99972.25;;;14.75;66.16
15678;BME280;7939;50.814;6.368;2023-11-21T12:46:21;99979.94;;;14.78;65.82
15678;BME280;7939;50.814;6.368;2023-11-21T12:48:48;99977.47;;;14.69;66.20
15678;BME280;7939;50.814;6.368;2023-11-21T12:51:16;99990.28;;;14.73;65.72
15678;BME280;7939;50.814;6.368;2023-11-21T12:53:44;99990.31;;;14.72;65.97
15678;BME280;7939;50.814;6.368;2023-11-21T12:56:13;99992.88;;;14.72;65.75
15678;BME280;7939;50.814;6.368;2023-11-21T12:58:44;99997.06;;;14.80;65.79
15678;BME280;7939;50.814;6.368;2023-11-21T13:01:13;99997.16;;;14.73;65.69
15678;BME280;7939;50.814;6.368;2023-11-21T13:03:46;100002.25;;;14.77;65.27
15678;BME280;7939;50.814;6.368;2023-11-21T13:06:14;100004.78;;;14.80;65.97
15678;BME280;7939;50.814;6.368;2023-11-21T13:08:44;100010.03;;;14.70;64.88
15678;BME280;7939;50.814;6.368;2023-11-21T13:11:11;100005.63;;;14.81;65.60
15678;BME280;7939;50.814;6.368;2023-11-21T13:13:40;100009.03;;;14.81;65.38